sensor_id;sensor_type;location;lat;lon;timestamp;pressure;altitude;pressure_sealevel;temperature;humidity
73297;BME280;61524;50.938;11.396;2022-07-12T00:00:56;100443.28;;;11.81;89.80
73297;BME280;61524;50.938;11.396;2022-07-12T00:03:22;100492.47;;;11.87;89.56
73297;BME280;61524;50.938;11.396;2022-07-12T00:05:47;100469.19;;;11.87;89.43
73297;BME280;61524;50.938;11.396;2022-07-12T00:08:13;100571.19;;;11.86;89.66
73297;BME280;61524;50.938;11.396;2022-07-12T00:10:38;100496.22;;;11.86;89.99
73297;BME280;61524;50.938;11.396;2022-07-12T00:13:04;100537.94;;;11.93;89.83
73297;BME280;61524;50.938;11.396;2022-07-12T00:15:30;100557.09;;;11.97;90.07
73297;BME280;61524;50.938;11.396;2022-07-12T00:17:55;100517.78;;;11.91;90.01
73297;BME280;61524;50.938;11.396;2022-07-12T00:20:21;100575.44;;;11.93;89.66
73297;BME280;61524;50.938;11.396;2022-07-12T00:22:47;100538.00;;;11.87;89.95
73297;BME280;61524;50.938;11.396;2022-07-12T00:25:12;100573.25;;;11.83;89.77
73297;BME280;61524;50.938;11.396;2022-07-12T00:27:39;100602.31;;;11.80;90.10
73297;BME280;61524;50.938;11.396;2022-07-12T00:30:06;100597.34;;;11.83;89.76
73297;BME280;61524;50.938;11.396;2022-07-12T00:32:33;100587.88;;;11.81;89.81
73297;BME280;61524;50.938;11.396;2022-07-12T00:34:58;100621.06;;;11.80;89.65
73297;BME280;61524;50.938;11.396;2022-07-12T00:37:24;100621.47;;;11.77;89.55
73297;BME280;61524;50.938;11.396;2022-07-12T00:39:50;100607.94;;;11.65;89.76
73297;BME280;61524;50.938;11.396;2022-07-12T00:42:16;100629.72;;;11.75;89.84
73297;BME280;61524;50.938;11.396;2022-07-12T00:44:41;100650.75;;;11.72;89.63
73297;BME280;61524;50.938;11.396;2022-07-12T00:47:07;100623.41;;;11.63;89.65
73297;BME280;61524;50.938;11.396;2022-07-12T00:49:33;100649.16;;;11.64;89.47
73297;BME280;61524;50.938;11.396;2022-07-12T00:51:58;100649.38;;;11.63;89.64
73297;BME280;61524;50.938;11.396;2022-07-12T00:54:23;100668.94;;;11.63;89.37
73297;BME280;61524;50.938;11.396;2022-07-12T00:56:49;100658.88;;;11.52;89.85
73297;BME280;61524;50.938;11.396;2022-07-12T00:59:15;100637.03;;;11.55;89.36
73297;BME280;61524;50.938;11.396;2022-07-12T01:01:41;100590.94;;;11.53;89.25
73297;BME280;61524;50.938;11.396;2022-07-12T01:04:07;100592.97;;;11.51;89.15
73297;BME280;61524;50.938;11.396;2022-07-12T01:06:33;100599.19;;;11.45;89.58
73297;BME280;61524;50.938;11.396;2022-07-12T01:08:59;100582.59;;;11.36;89.92
73297;BME280;61524;50.938;11.396;2022-07-12T01:11:25;100565.03;;;11.40;89.63
73297;BME280;61524;50.938;11.396;2022-07-12T01:13:54;100579.69;;;11.38;89.80
73297;BME280;61524;50.938;11.396;2022-07-12T01:16:20;100571.84;;;11.43;89.97
73297;BME280;61524;50.938;11.396;2022-07-12T01:18:46;100597.34;;;11.45;90.00
73297;BME280;61524;50.938;11.396;2022-07-12T01:21:17;100630.94;;;11.41;89.87
73297;BME280;61524;50.938;11.396;2022-07-12T01:23:44;100563.75;;;11.49;89.75
73297;BME280;61524;50.938;11.396;2022-07-12T01:26:10;100555.31;;;11.52;89.86
73297;BME280;61524;50.938;11.396;2022-07-12T01:28:36;100550.78;;;11.53;89.54
73297;BME280;61524;50.938;11.396;2022-07-12T01:31:02;100549.34;;;11.50;89.17
73297;BME280;61524;50.938;11.396;2022-07-12T01:33:28;100537.41;;;11.53;89.61
73297;BME280;61524;50.938;11.396;2022-07-12T01:35:55;100548.16;;;11.46;89.20
73297;BME280;61524;50.938;11.396;2022-07-12T01:38:21;100539.31;;;11.39;90.01
73297;BME280;61524;50.938;11.396;2022-07-12T01:40:47;100527.22;;;11.37;89.97
73297;BME280;61524;50.938;11.396;2022-07-12T01:43:12;100539.94;;;11.41;89.51
73297;BME280;61524;50.938;11.396;2022-07-12T01:45:38;100541.78;;;11.41;90.01
73297;BME280;61524;50.938;11.396;2022-07-12T01:48:04;100529.44;;;11.40;89.58
73297;BME280;61524;50.938;11.396;2022-07-12T01:50:29;100526.38;;;11.36;90.36
73297;BME280;61524;50.938;11.396;2022-07-12T01:52:55;100522.28;;;11.34;89.99
73297;BME280;61524;50.938;11.396;2022-07-12T01:55:21;100526.41;;;11.29;90.05
73297;BME280;61524;50.938;11.396;2022-07-12T01:57:49;100518.56;;;11.35;90.05
73297;BME280;61524;50.938;11.396;2022-07-12T02:00:14;100513.69;;;11.25;89.56
73297;BME280;61524;50.938;11.396;2022-07-12T02:02:40;100505.50;;;11.20;90.21
73297;BME280;61524;50.938;11.396;2022-07-12T02:05:07;100505.91;;;11.17;90.31
73297;BME280;61524;50.938;11.396;2022-07-12T02:07:32;100636.38;;;11.15;90.13
73297;BME280;61524;50.938;11.396;2022-07-12T02:09:58;100532.69;;;11.10;90.99
73297;BME280;61524;50.938;11.396;2022-07-12T02:12:24;100524.41;;;11.18;90.82
73297;BME280;61524;50.938;11.396;2022-07-12T02:14:50;100523.53;;;11.24;90.82
73297;BME280;61524;50.938;11.396;2022-07-12T02:17:16;100525.59;;;11.29;90.14
73297;BME280;61524;50.938;11.396;2022-07-12T02:19:42;100520.84;;;11.31;90.16
73297;BME280;61524;50.938;11.396;2022-07-12T02:22:08;100522.31;;;11.27;89.85
73297;BME280;61524;50.938;11.396;2022-07-12T02:24:34;100519.63;;;11.27;90.27
73297;BME280;61524;50.938;11.396;2022-07-12T02:27:00;100521.13;;;11.16;90.00
73297;BME280;61524;50.938;11.396;2022-07-12T02:29:25;100527.72;;;11.14;91.05
73297;BME280;61524;50.938;11.396;2022-07-12T02:31:51;100527.06;;;11.25;90.57
73297;BME280;61524;50.938;11.396;2022-07-12T02:34:17;100515.97;;;11.21;90.60
73297;BME280;61524;50.938;11.396;2022-07-12T02:36:42;100519.88;;;11.25;90.35
73297;BME280;61524;50.938;11.396;2022-07-12T02:39:08;100514.88;;;11.29;90.24
73297;BME280;61524;50.938;11.396;2022-07-12T02:41:35;100580.34;;;11.26;90.13
73297;BME280;61524;50.938;11.396;2022-07-12T02:44:01;100614.72;;;11.23;90.71
73297;BME280;61524;50.938;11.396;2022-07-12T02:46:27;100632.41;;;11.24;90.21
73297;BME280;61524;50.938;11.396;2022-07-12T02:48:52;100668.88;;;11.18;90.16
73297;BME280;61524;50.938;11.396;2022-07-12T02:51:18;100730.84;;;11.09;90.77
73297;BME280;61524;50.938;11.396;2022-07-12T02:53:43;100754.91;;;11.02;90.83
73297;BME280;61524;50.938;11.396;2022-07-12T02:56:09;100712.72;;;10.97;90.92
73297;BME280;61524;50.938;11.396;2022-07-12T02:58:36;100727.38;;;10.88;91.38
73297;BME280;61524;50.938;11.396;2022-07-12T03:01:01;100729.22;;;10.88;91.02
73297;BME280;61524;50.938;11.396;2022-07-12T03:03:27;100812.13;;;10.88;91.22
73297;BME280;61524;50.938;11.396;2022-07-12T03:05:53;100766.84;;;10.86;91.40
73297;BME280;61524;50.938;11.396;2022-07-12T03:08:18;100827.31;;;10.81;91.41
73297;BME280;61524;50.938;11.396;2022-07-12T03:10:45;100831.84;;;10.80;91.09
73297;BME280;61524;50.938;11.396;2022-07-12T03:13:10;100844.38;;;10.80;91.79
73297;BME280;61524;50.938;11.396;2022-07-12T03:15:36;100844.81;;;10.76;90.93
73297;BME280;61524;50.938;11.396;2022-07-12T03:18:01;100868.66;;;10.71;90.95
73297;BME280;61524;50.938;11.396;2022-07-12T03:20:28;100893.31;;;10.67;90.71
73297;BME280;61524;50.938;11.396;2022-07-12T03:22:54;100921.88;;;10.66;91.21
73297;BME280;61524;50.938;11.396;2022-07-12T03:25:20;100968.97;;;10.67;90.50
73297;BME280;61524;50.938;11.396;2022-07-12T03:27:46;100917.00;;;10.76;90.91
73297;BME280;61524;50.938;11.396;2022-07-12T03:30:12;100902.97;;;10.74;90.75
73297;BME280;61524;50.938;11.396;2022-07-12T03:32:38;100923.75;;;10.72;90.95
73297;BME280;61524;50.938;11.396;2022-07-12T03:35:04;100925.53;;;10.59;91.09
73297;BME280;61524;50.938;11.396;2022-07-12T03:37:47;100965.63;;;10.59;91.69
73297;BME280;61524;50.938;11.396;2022-07-12T03:40:13;100989.69;;;10.59;91.40
73297;BME280;61524;50.938;11.396;2022-07-12T03:42:39;100977.78;;;10.61;91.42
73297;BME280;61524;50.938;11.396;2022-07-12T03:45:06;100982.34;;;10.67;91.18
73297;BME280;61524;50.938;11.396;2022-07-12T03:47:32;101019.78;;;10.67;91.13
73297;BME280;61524;50.938;11.396;2022-07-12T03:49:58;101031.50;;;10.66;90.68
73297;BME280;61524;50.938;11.396;2022-07-12T03:52:23;101013.00;;;10.71;90.88
73297;BME280;61524;50.938;11.396;2022-07-12T03:54:49;101024.78;;;10.84;91.32
73297;BME280;61524;50.938;11.396;2022-07-12T03:57:14;101067.59;;;10.90;91.00
73297;BME280;61524;50.938;11.396;2022-07-12T03:59:44;101174.34;;;10.92;90.54
73297;BME280;61524;50.938;11.396;2022-07-12T04:02:10;101091.66;;;10.90;90.34
73297;BME280;61524;50.938;11.396;2022-07-12T04:04:35;101091.06;;;10.95;90.77
73297;BME280;61524;50.938;11.396;2022-07-12T04:07:01;101144.22;;;11.11;90.25
73297;BME280;61524;50.938;11.396;2022-07-12T04:09:27;101026.97;;;11.21;90.01
73297;BME280;61524;50.938;11.396;2022-07-12T04:11:52;101062.66;;;11.48;89.86
73297;BME280;61524;50.938;11.396;2022-07-12T04:14:18;101037.09;;;11.46;89.51
73297;BME280;61524;50.938;11.396;2022-07-12T04:16:43;101092.31;;;11.47;89.18
73297;BME280;61524;50.938;11.396;2022-07-12T04:19:09;101063.69;;;11.47;89.49
73297;BME280;61524;50.938;11.396;2022-07-12T04:21:36;101041.25;;;11.42;90.09
73297;BME280;61524;50.938;11.396;2022-07-12T04:24:01;101112.91;;;11.53;90.67
73297;BME280;61524;50.938;11.396;2022-07-12T04:26:27;101074.00;;;11.57;90.56
73297;BME280;61524;50.938;11.396;2022-07-12T04:28:53;101126.81;;;11.83;90.29
73297;BME280;61524;50.938;11.396;2022-07-12T04:31:18;101039.00;;;12.31;88.16
73297;BME280;61524;50.938;11.396;2022-07-12T04:33:44;100954.41;;;12.55;87.45
73297;BME280;61524;50.938;11.396;2022-07-12T04:36:09;100938.41;;;13.25;85.71
73297;BME280;61524;50.938;11.396;2022-07-12T04:38:35;100936.31;;;13.77;82.62
73297;BME280;61524;50.938;11.396;2022-07-12T04:41:00;100952.53;;;14.32;81.09
73297;BME280;61524;50.938;11.396;2022-07-12T04:43:26;100952.03;;;14.90;78.93
73297;BME280;61524;50.938;11.396;2022-07-12T04:45:52;100948.75;;;15.18;78.16
73297;BME280;61524;50.938;11.396;2022-07-12T04:48:17;100945.53;;;15.52;77.04
73297;BME280;61524;50.938;11.396;2022-07-12T04:50:43;100944.28;;;16.13;75.35
73297;BME280;61524;50.938;11.396;2022-07-12T04:53:09;100935.91;;;16.49;73.72
73297;BME280;61524;50.938;11.396;2022-07-12T04:55:35;100954.22;;;16.88;72.85
73297;BME280;61524;50.938;11.396;2022-07-12T04:58:00;100939.75;;;17.22;71.82
73297;BME280;61524;50.938;11.396;2022-07-12T05:00:26;100940.97;;;17.48;71.40
73297;BME280;61524;50.938;11.396;2022-07-12T05:02:51;100930.44;;;17.80;69.30
73297;BME280;61524;50.938;11.396;2022-07-12T05:05:17;100923.56;;;18.12;68.84
73297;BME280;61524;50.938;11.396;2022-07-12T05:07:42;100926.69;;;18.42;68.42
73297;BME280;61524;50.938;11.396;2022-07-12T05:10:08;100950.44;;;19.06;66.61
73297;BME280;61524;50.938;11.396;2022-07-12T05:12:34;100933.13;;;19.39;65.18
73297;BME280;61524;50.938;11.396;2022-07-12T05:15:00;100948.09;;;19.79;64.94
73297;BME280;61524;50.938;11.396;2022-07-12T05:17:26;100956.41;;;20.04;63.42
73297;BME280;61524;50.938;11.396;2022-07-12T05:19:51;100965.91;;;20.07;63.47
73297;BME280;61524;50.938;11.396;2022-07-12T05:22:16;100954.59;;;20.15;63.62
73297;BME280;61524;50.938;11.396;2022-07-12T05:24:42;100938.28;;;20.67;61.82
73297;BME280;61524;50.938;11.396;2022-07-12T05:27:07;100920.84;;;20.53;63.29
73297;BME280;61524;50.938;11.396;2022-07-12T05:29:33;100893.25;;;21.17;61.52
73297;BME280;61524;50.938;11.396;2022-07-12T05:31:58;100882.13;;;21.44;60.24
73297;BME280;61524;50.938;11.396;2022-07-12T05:34:26;100868.25;;;21.46;60.28
73297;BME280;61524;50.938;11.396;2022-07-12T05:36:52;100913.09;;;21.79;58.58
73297;BME280;61524;50.938;11.396;2022-07-12T05:39:17;100805.56;;;20.13;63.51
73297;BME280;61524;50.938;11.396;2022-07-12T05:41:42;100716.34;;;19.07;67.81
73297;BME280;61524;50.938;11.396;2022-07-12T05:44:08;100679.38;;;18.53;69.83
73297;BME280;61524;50.938;11.396;2022-07-12T05:46:33;100660.91;;;17.64;72.95
73297;BME280;61524;50.938;11.396;2022-07-12T05:49:00;100665.22;;;17.38;74.46
73297;BME280;61524;50.938;11.396;2022-07-12T05:51:25;100691.28;;;17.27;75.16
73297;BME280;61524;50.938;11.396;2022-07-12T05:54:09;100719.06;;;16.89;76.49
73297;BME280;61524;50.938;11.396;2022-07-12T05:56:36;100741.06;;;18.46;71.98
73297;BME280;61524;50.938;11.396;2022-07-12T05:59:01;100724.63;;;18.26;71.75
73297;BME280;61524;50.938;11.396;2022-07-12T06:01:27;100705.19;;;18.07;72.03
73297;BME280;61524;50.938;11.396;2022-07-12T06:03:52;100704.34;;;18.01;72.88
73297;BME280;61524;50.938;11.396;2022-07-12T06:06:17;100700.84;;;17.79;72.85
73297;BME280;61524;50.938;11.396;2022-07-12T06:08:43;100691.94;;;17.78;73.14
73297;BME280;61524;50.938;11.396;2022-07-12T06:11:08;100693.94;;;17.88;73.23
73297;BME280;61524;50.938;11.396;2022-07-12T06:13:34;100703.06;;;18.36;71.14
73297;BME280;61524;50.938;11.396;2022-07-12T06:15:59;100737.50;;;19.10;67.67
73297;BME280;61524;50.938;11.396;2022-07-12T06:18:25;100703.22;;;18.56;69.74
73297;BME280;61524;50.938;11.396;2022-07-12T06:20:51;100701.25;;;18.47;70.73
73297;BME280;61524;50.938;11.396;2022-07-12T06:23:17;100730.41;;;19.51;65.34
73297;BME280;61524;50.938;11.396;2022-07-12T06:25:42;100715.41;;;18.86;67.69
73297;BME280;61524;50.938;11.396;2022-07-12T06:28:08;100712.69;;;18.86;67.33
73297;BME280;61524;50.938;11.396;2022-07-12T06:30:33;100697.44;;;18.43;69.26
73297;BME280;61524;50.938;11.396;2022-07-12T06:32:59;100755.28;;;19.90;64.77
73297;BME280;61524;50.938;11.396;2022-07-12T06:35:24;100790.50;;;21.30;60.48
73297;BME280;61524;50.938;11.396;2022-07-12T06:37:50;100816.59;;;22.26;58.68
73297;BME280;61524;50.938;11.396;2022-07-12T06:53:42;100823.94;;;20.89;58.54
73297;BME280;61524;50.938;11.396;2022-07-12T06:56:07;100740.97;;;20.15;60.72
73297;BME280;61524;50.938;11.396;2022-07-12T06:58:33;100735.94;;;19.66;64.09
73297;BME280;61524;50.938;11.396;2022-07-12T07:00:59;100740.66;;;19.91;62.80
73297;BME280;61524;50.938;11.396;2022-07-12T07:03:24;100784.47;;;21.53;58.22
73297;BME280;61524;50.938;11.396;2022-07-12T07:05:50;100772.50;;;21.59;57.06
73297;BME280;61524;50.938;11.396;2022-07-12T07:08:15;100798.66;;;22.20;55.19
73297;BME280;61524;50.938;11.396;2022-07-12T07:10:41;100796.72;;;22.65;54.41
73297;BME280;61524;50.938;11.396;2022-07-12T07:13:07;100767.38;;;22.07;54.74
73297;BME280;61524;50.938;11.396;2022-07-12T07:15:34;100712.00;;;20.77;57.92
73297;BME280;61524;50.938;11.396;2022-07-12T07:17:59;100673.56;;;19.66;61.90
73297;BME280;61524;50.938;11.396;2022-07-12T07:20:26;100668.66;;;19.01;63.88
73297;BME280;61524;50.938;11.396;2022-07-12T07:22:51;100735.91;;;20.80;60.56
73297;BME280;61524;50.938;11.396;2022-07-12T07:25:17;100778.81;;;22.09;56.59
73297;BME280;61524;50.938;11.396;2022-07-12T07:27:42;100804.34;;;23.36;53.25
73297;BME280;61524;50.938;11.396;2022-07-12T07:30:10;100793.19;;;23.33;51.11
73297;BME280;61524;50.938;11.396;2022-07-12T07:32:54;100799.31;;;24.15;49.16
73297;BME280;61524;50.938;11.396;2022-07-12T07:35:19;100760.72;;;23.84;49.54
73297;BME280;61524;50.938;11.396;2022-07-12T07:37:45;100753.38;;;23.79;49.00
73297;BME280;61524;50.938;11.396;2022-07-12T07:40:11;100746.84;;;23.51;49.10
73297;BME280;61524;50.938;11.396;2022-07-12T07:42:37;100771.06;;;24.06;49.88
73297;BME280;61524;50.938;11.396;2022-07-12T07:45:02;100731.06;;;23.24;50.04
73297;BME280;61524;50.938;11.396;2022-07-12T07:47:31;100740.44;;;23.66;50.36
73297;BME280;61524;50.938;11.396;2022-07-12T07:49:57;100692.19;;;22.85;49.79
73297;BME280;61524;50.938;11.396;2022-07-12T07:52:22;100727.13;;;23.60;50.24
73297;BME280;61524;50.938;11.396;2022-07-12T07:54:48;100732.22;;;24.09;48.31
73297;BME280;61524;50.938;11.396;2022-07-12T07:57:14;100742.59;;;24.64;47.26
73297;BME280;61524;50.938;11.396;2022-07-12T07:59:39;100709.31;;;23.67;47.56
73297;BME280;61524;50.938;11.396;2022-07-12T08:02:05;100721.56;;;23.70;48.43
73297;BME280;61524;50.938;11.396;2022-07-12T08:04:30;100726.84;;;24.23;47.78
73297;BME280;61524;50.938;11.396;2022-07-12T08:06:56;100674.34;;;23.45;47.42
73297;BME280;61524;50.938;11.396;2022-07-12T08:09:23;100914.78;;;23.73;47.49
73297;BME280;61524;50.938;11.396;2022-07-12T08:11:48;100679.06;;;22.92;48.81
73297;BME280;61524;50.938;11.396;2022-07-12T08:14:15;100658.53;;;22.70;48.62
73297;BME280;61524;50.938;11.396;2022-07-12T08:16:40;100632.59;;;21.70;49.89
73297;BME280;61524;50.938;11.396;2022-07-12T08:19:06;100632.72;;;21.50;51.45
73297;BME280;61524;50.938;11.396;2022-07-12T08:21:31;100648.56;;;22.26;50.62
73297;BME280;61524;50.938;11.396;2022-07-12T08:23:57;100620.78;;;21.90;51.73
73297;BME280;61524;50.938;11.396;2022-07-12T08:26:23;100617.56;;;21.78;51.93
73297;BME280;61524;50.938;11.396;2022-07-12T08:28:48;100612.59;;;21.46;51.55
73297;BME280;61524;50.938;11.396;2022-07-12T08:31:14;100627.22;;;21.60;50.61
73297;BME280;61524;50.938;11.396;2022-07-12T08:33:40;100606.19;;;21.21;50.62
73297;BME280;61524;50.938;11.396;2022-07-12T08:36:07;100619.09;;;21.50;49.31
73297;BME280;61524;50.938;11.396;2022-07-12T08:38:34;100624.75;;;21.64;48.60
73297;BME280;61524;50.938;11.396;2022-07-12T08:41:01;100603.88;;;21.49;46.67
73297;BME280;61524;50.938;11.396;2022-07-12T08:43:27;100648.19;;;22.38;47.60
73297;BME280;61524;50.938;11.396;2022-07-12T08:45:52;100627.72;;;22.12;48.85
73297;BME280;61524;50.938;11.396;2022-07-12T08:48:17;100632.13;;;22.37;47.55
73297;BME280;61524;50.938;11.396;2022-07-12T08:50:59;100626.66;;;22.42;46.17
73297;BME280;61524;50.938;11.396;2022-07-12T08:53:25;100654.00;;;22.90;47.94
73297;BME280;61524;50.938;11.396;2022-07-12T08:55:50;100648.50;;;22.95;46.49
73297;BME280;61524;50.938;11.396;2022-07-12T08:58:16;100616.81;;;22.46;47.49
73297;BME280;61524;50.938;11.396;2022-07-12T09:00:43;100604.84;;;22.08;49.74
73297;BME280;61524;50.938;11.396;2022-07-12T09:03:09;100580.97;;;21.06;50.45
73297;BME280;61524;50.938;11.396;2022-07-12T09:05:37;100587.00;;;21.52;48.18
73297;BME280;61524;50.938;11.396;2022-07-12T09:08:10;100608.34;;;22.18;45.57
73297;BME280;61524;50.938;11.396;2022-07-12T09:10:55;100604.50;;;22.19;46.60
73297;BME280;61524;50.938;11.396;2022-07-12T09:15:49;100622.94;;;22.86;45.22
73297;BME280;61524;50.938;11.396;2022-07-12T09:18:15;100640.09;;;23.58;45.17
73297;BME280;61524;50.938;11.396;2022-07-12T09:20:50;100584.56;;;22.29;46.46
73297;BME280;61524;50.938;11.396;2022-07-12T09:23:16;100553.34;;;21.43;47.25
73297;BME280;61524;50.938;11.396;2022-07-12T09:25:46;100532.25;;;21.14;49.57
73297;BME280;61524;50.938;11.396;2022-07-12T09:28:12;100532.88;;;21.01;49.07
73297;BME280;61524;50.938;11.396;2022-07-12T09:30:50;100564.84;;;21.74;48.54
73297;BME280;61524;50.938;11.396;2022-07-12T09:33:18;100589.16;;;22.58;45.28
73297;BME280;61524;50.938;11.396;2022-07-12T09:36:03;100609.47;;;22.99;44.03
73297;BME280;61524;50.938;11.396;2022-07-12T09:38:35;100580.19;;;22.57;43.81
73297;BME280;61524;50.938;11.396;2022-07-12T09:41:02;100572.78;;;21.99;45.16
73297;BME280;61524;50.938;11.396;2022-07-12T09:43:28;100528.63;;;21.34;45.70
73297;BME280;61524;50.938;11.396;2022-07-12T09:45:55;100544.84;;;21.55;46.48
73297;BME280;61524;50.938;11.396;2022-07-12T09:48:22;100580.34;;;22.42;45.08
73297;BME280;61524;50.938;11.396;2022-07-12T09:50:51;100577.38;;;22.91;44.93
73297;BME280;61524;50.938;11.396;2022-07-12T09:53:32;100576.09;;;23.08;44.30
73297;BME280;61524;50.938;11.396;2022-07-12T09:56:03;100576.81;;;22.94;44.99
73297;BME280;61524;50.938;11.396;2022-07-12T09:58:34;100572.91;;;23.00;43.61
73297;BME280;61524;50.938;11.396;2022-07-12T10:01:01;100584.81;;;23.28;41.97
73297;BME280;61524;50.938;11.396;2022-07-12T10:03:29;100589.97;;;23.30;41.87
73297;BME280;61524;50.938;11.396;2022-07-12T10:05:59;100590.34;;;23.23;41.67
73297;BME280;61524;50.938;11.396;2022-07-12T10:08:25;100572.25;;;22.85;40.63
73297;BME280;61524;50.938;11.396;2022-07-12T10:10:51;100589.03;;;23.21;41.18
73297;BME280;61524;50.938;11.396;2022-07-12T10:13:18;100576.50;;;22.96;41.37
73297;BME280;61524;50.938;11.396;2022-07-12T10:15:46;100569.69;;;22.69;42.54
73297;BME280;61524;50.938;11.396;2022-07-12T10:18:19;100563.75;;;22.91;40.80
73297;BME280;61524;50.938;11.396;2022-07-12T10:20:49;100608.06;;;23.26;41.12
73297;BME280;61524;50.938;11.396;2022-07-12T10:23:33;100587.84;;;22.79;42.50
73297;BME280;61524;50.938;11.396;2022-07-12T10:26:37;100592.25;;;23.04;42.71
73297;BME280;61524;50.938;11.396;2022-07-12T10:29:05;100581.16;;;22.95;41.54
73297;BME280;61524;50.938;11.396;2022-07-12T10:31:36;100581.50;;;22.89;41.92
73297;BME280;61524;50.938;11.396;2022-07-12T10:34:12;100588.53;;;23.38;41.01
73297;BME280;61524;50.938;11.396;2022-07-12T10:39:26;100602.41;;;23.98;41.01
73297;BME280;61524;50.938;11.396;2022-07-12T10:44:40;100570.25;;;23.57;39.97
73297;BME280;61524;50.938;11.396;2022-07-12T10:47:07;100589.72;;;23.88;40.33
73297;BME280;61524;50.938;11.396;2022-07-12T10:49:34;100571.16;;;23.71;40.41
73297;BME280;61524;50.938;11.396;2022-07-12T10:57:43;100579.28;;;24.09;39.32
73297;BME280;61524;50.938;11.396;2022-07-12T11:00:10;100556.25;;;23.64;39.97
73297;BME280;61524;50.938;11.396;2022-07-12T11:02:36;100528.28;;;23.53;40.10
73297;BME280;61524;50.938;11.396;2022-07-12T11:05:02;100540.31;;;23.71;40.34
73297;BME280;61524;50.938;11.396;2022-07-12T11:07:28;100533.75;;;23.72;39.63
73297;BME280;61524;50.938;11.396;2022-07-12T11:09:54;100508.31;;;23.39;40.13
73297;BME280;61524;50.938;11.396;2022-07-12T11:12:21;100514.66;;;23.53;40.41
73297;BME280;61524;50.938;11.396;2022-07-12T11:14:52;100522.81;;;23.72;41.35
73297;BME280;61524;50.938;11.396;2022-07-12T11:17:20;100508.06;;;23.54;39.88
73297;BME280;61524;50.938;11.396;2022-07-12T11:19:49;100512.94;;;23.57;38.88
73297;BME280;61524;50.938;11.396;2022-07-12T11:22:27;100491.13;;;23.38;39.27
73297;BME280;61524;50.938;11.396;2022-07-12T11:24:52;100510.59;;;23.69;39.85
73297;BME280;61524;50.938;11.396;2022-07-12T11:27:18;100490.28;;;23.56;39.95
73297;BME280;61524;50.938;11.396;2022-07-12T11:30:01;100491.41;;;23.55;40.64
73297;BME280;61524;50.938;11.396;2022-07-12T11:32:41;100494.72;;;23.71;40.70
73297;BME280;61524;50.938;11.396;2022-07-12T11:35:27;100470.28;;;23.61;40.28
73297;BME280;61524;50.938;11.396;2022-07-12T11:37:57;100456.72;;;23.56;40.39
73297;BME280;61524;50.938;11.396;2022-07-12T11:40:28;100466.75;;;23.79;41.61
73297;BME280;61524;50.938;11.396;2022-07-12T11:42:59;100493.72;;;24.14;40.52
73297;BME280;61524;50.938;11.396;2022-07-12T11:45:29;100472.06;;;24.03;38.79
73297;BME280;61524;50.938;11.396;2022-07-12T11:48:00;100460.13;;;23.67;39.76
73297;BME280;61524;50.938;11.396;2022-07-12T11:50:31;100466.94;;;23.69;39.61
73297;BME280;61524;50.938;11.396;2022-07-12T11:52:57;100569.00;;;23.87;39.57
73297;BME280;61524;50.938;11.396;2022-07-12T11:55:22;103305.91;;;23.72;39.53
73297;BME280;61524;50.938;11.396;2022-07-12T11:57:48;102366.94;;;24.13;40.08
73297;BME280;61524;50.938;11.396;2022-07-12T12:00:20;99963.44;;;24.20;39.14
73297;BME280;61524;50.938;11.396;2022-07-12T12:02:52;100772.09;;;24.29;39.19
73297;BME280;61524;50.938;11.396;2022-07-12T12:05:18;101032.75;;;24.57;37.88
73297;BME280;61524;50.938;11.396;2022-07-12T12:07:44;100758.19;;;24.82;37.33
73297;BME280;61524;50.938;11.396;2022-07-12T12:10:13;100989.44;;;24.64;37.36
73297;BME280;61524;50.938;11.396;2022-07-12T12:12:53;101002.84;;;24.42;36.51
73297;BME280;61524;50.938;11.396;2022-07-12T12:15:29;100875.16;;;24.23;38.59
73297;BME280;61524;50.938;11.396;2022-07-12T12:18:04;100847.47;;;24.54;37.21
73297;BME280;61524;50.938;11.396;2022-07-12T12:20:39;100803.25;;;24.28;37.16
73297;BME280;61524;50.938;11.396;2022-07-12T12:23:19;100767.00;;;24.22;35.78
73297;BME280;61524;50.938;11.396;2022-07-12T12:25:45;101073.28;;;24.16;29.63
73297;BME280;61524;50.938;11.396;2022-07-12T12:28:11;101980.22;;;24.48;38.62
73297;BME280;61524;50.938;11.396;2022-07-12T12:30:50;101557.53;;;24.77;37.75
73297;BME280;61524;50.938;11.396;2022-07-12T12:33:36;101133.84;;;24.86;38.34
73297;BME280;61524;50.938;11.396;2022-07-12T12:36:20;101006.97;;;24.63;38.05
73297;BME280;61524;50.938;11.396;2022-07-12T12:38:50;100903.19;;;24.10;38.24
73297;BME280;61524;50.938;11.396;2022-07-12T12:41:17;100820.22;;;24.49;39.35
73297;BME280;61524;50.938;11.396;2022-07-12T12:43:43;100749.97;;;24.49;38.10
73297;BME280;61524;50.938;11.396;2022-07-12T12:46:09;100760.59;;;24.51;38.16
73297;BME280;61524;50.938;11.396;2022-07-12T12:48:35;100605.66;;;24.32;38.41
73297;BME280;61524;50.938;11.396;2022-07-12T12:51:10;100264.75;;;24.29;38.12
73297;BME280;61524;50.938;11.396;2022-07-12T12:53:37;100235.06;;;24.14;37.44
73297;BME280;61524;50.938;11.396;2022-07-12T12:56:09;100264.06;;;24.24;37.23
73297;BME280;61524;50.938;11.396;2022-07-12T12:58:36;100243.84;;;24.25;37.83
73297;BME280;61524;50.938;11.396;2022-07-12T13:01:03;100248.78;;;24.37;38.50
73297;BME280;61524;50.938;11.396;2022-07-12T13:03:29;100255.25;;;24.63;38.32
73297;BME280;61524;50.938;11.396;2022-07-12T13:05:55;100243.16;;;24.78;38.06
73297;BME280;61524;50.938;11.396;2022-07-12T13:08:20;100227.75;;;24.59;37.66